Latest Weather Observations for Warwick

IDQ60901

Issued at 8:41 am EST Wednesday 4 March 2015 (issued every 10 minutes, with the page automatically refreshed every 10 minutes)

About weather observations | Map of Brisbane area stations | Latest observations for Brisbane area | Other Formats
Station Details ID: 041525 Name: WARWICK Lat: -28.21 Lon: 152.10 Height: 475.4 m
Data from the previous 72 hours. | See also: Recent months at Warwick
Date/Time
EST
Tmp

°C
App
Tmp
°C
Dew
Point
°C
Rel
Hum
%
Delta-T

°C
Wind Press
QNH
hPa
Press
MSL
hPa
Rain
since
9 am
mm
Dir
 
Spd
km/h
Gust
km/h
Spd
kts
Gust
kts
04/08:30am 20.1 22.5 18.0 88 1.3 WSW 2 9 1 5 1016.6 1014.4 0.0
04/08:00am 19.3 21.0 18.0 92 0.8 SW 6 11 3 6 1016.6 1014.4 0.0
04/07:30am 19.0 21.8 18.0 94 0.6 CALM 0 0 0 0 1016.0 1013.8 0.0
04/07:00am 18.4 21.1 17.8 96 0.4 CALM 0 0 0 0 1015.8 1013.6 0.0
04/06:30am 17.9 20.5 17.4 97 0.3 CALM 0 0 0 0 1015.6 1013.4 0.0
04/05:30am 17.7 20.2 17.2 97 0.3 CALM 0 0 0 0 1014.8 1012.6 0.0
04/05:00am 17.4 19.6 16.6 95 0.5 CALM 0 0 0 0 1014.4 1012.2 0.0
04/04:30am 17.7 20.1 16.9 95 0.5 CALM 0 0 0 0 1014.4 1012.2 0.0
04/04:00am 17.3 19.5 16.5 95 0.5 CALM 0 0 0 0 1014.2 1012.0 0.0
04/03:30am 17.2 19.4 16.5 96 0.4 CALM 0 0 0 0 1014.3 1012.1 0.0
04/03:00am 17.6 20.0 17.1 97 0.3 CALM 0 0 0 0 1014.5 1012.3 0.0
04/02:30am 18.0 20.6 17.4 96 0.4 CALM 0 0 0 0 1014.7 1012.5 0.0
04/02:00am 17.8 20.2 17.0 95 0.5 CALM 0 0 0 0 1015.1 1012.8 0.0
04/01:30am 18.1 20.6 17.3 95 0.5 CALM 0 0 0 0 1015.5 1013.3 0.0
04/01:00am 18.2 20.6 17.1 93 0.7 CALM 0 0 0 0 1015.9 1013.7 0.0
04/12:30am 19.0 21.5 17.2 89 1.1 CALM 0 0 0 0 1016.0 1013.8 0.0
04/12:00am 19.2 22.0 17.9 92 0.8 CALM 0 0 0 0 1016.6 1014.4 0.0
 
Date/Time
EST
Tmp

°C
App
Tmp
°C
Dew
Point
°C
Rel
Hum
%
Delta-T

°C
Wind Press
QNH
hPa
Press
MSL
hPa
Rain
since
9 am
mm
Dir
 
Spd
km/h
Gust
km/h
Spd
kts
Gust
kts
03/11:30pm 19.6 22.3 17.7 89 1.2 CALM 0 0 0 0 1016.8 1014.6 0.0
03/11:00pm 20.1 22.7 17.4 84 1.7 CALM 0 0 0 0 1016.8 1014.6 0.0
03/10:30pm 20.9 23.7 17.9 83 1.9 CALM 0 0 0 0 1016.8 1014.6 0.0
03/10:00pm 21.8 23.4 18.3 80 2.2 NE 7 13 4 7 1016.7 1014.5 0.0
03/09:30pm 22.1 25.2 18.7 81 2.2 CALM 0 0 0 0 1016.7 1014.5 0.0
03/09:00pm 22.0 24.6 18.4 80 2.3 NNE 2 7 1 4 1016.6 1014.4 0.0
03/08:30pm 22.2 24.1 18.6 80 2.3 SE 6 11 3 6 1016.2 1014.0 0.0
03/08:00pm 22.5 24.9 18.9 80 2.3 SE 4 7 2 4 1015.9 1013.7 0.0
03/07:30pm 23.5 26.8 19.0 76 2.9 CALM 0 4 0 2 1015.5 1013.3 0.0
03/07:00pm 24.3 26.4 18.9 72 3.5 ESE 6 9 3 5 1014.9 1012.7 0.0
03/06:30pm 25.5 27.0 18.9 67 4.3 SE 9 17 5 9 1014.7 1012.5 0.0
03/06:00pm 27.0 28.3 18.4 59 5.6 SE 9 15 5 8 1014.4 1012.2 0.0
03/05:30pm 28.5 29.8 18.4 54 6.6 SSE 9 17 5 9 1014.1 1011.9 0.0
03/05:00pm 28.8 29.8 17.8 51 7.1 SSE 9 17 5 9 1013.9 1011.7 0.0
03/04:30pm 28.7 29.8 17.9 52 7.0 SSE 9 11 5 6 1013.7 1011.5 0.0
03/04:00pm 28.8 30.5 18.6 54 6.7 ESE 7 13 4 7 1013.7 1011.5 0.0
03/03:30pm 28.9 30.0 18.0 51 7.1 SSE 9 17 5 9 1013.9 1011.7 0.0
03/03:00pm 29.1 29.8 18.0 51 7.2 SE 11 22 6 12 1014.0 1011.8 0.0
03/02:30pm 28.7 29.7 17.7 51 7.1 SE 9 17 5 9 1014.3 1012.1 0.0
03/02:00pm 28.9 29.0 17.4 49 7.4 SSE 13 26 7 14 1014.7 1012.5 0.0
03/01:30pm 28.8 28.3 16.9 48 7.6 SSE 15 26 8 14 1015.1 1012.8 0.0
03/01:00pm 27.9 28.2 16.9 51 7.0 S 11 20 6 11 1015.5 1013.3 0.0
03/12:30pm 28.0 28.3 17.0 51 7.0 S 11 19 6 10 1015.9 1013.7 0.0
03/12:00pm 26.8 27.1 17.0 55 6.2 SSE 11 17 6 9 1016.2 1014.0 0.0
03/11:30am 26.6 26.4 16.6 54 6.3 SSE 13 22 7 12 1016.6 1014.4 0.0
03/11:00am 26.3 27.5 16.8 56 6.0 ESE 6 20 3 11 1017.1 1015.0 0.0
03/10:30am 25.5 26.3 16.4 57 5.7 S 7 13 4 7 1017.5 1015.3 0.0
03/10:00am 24.6 25.3 16.1 59 5.3 SE 7 17 4 9 1017.6 1015.4 0.0
03/09:30am 24.3 24.6 16.1 60 5.1 E 9 19 5 10 1017.7 1015.5 0.0
03/09:00am 23.8 23.5 16.4 63 4.6 SE 13 22 7 12 1017.8 1015.6 0.0
03/08:30am 23.0 22.8 16.7 67 3.9 SSE 13 20 7 11 1017.8 1015.6 0.0
03/08:00am 22.3 22.5 16.7 70 3.5 SSE 11 19 6 10 1017.4 1015.2 0.0
03/07:30am 21.0 21.0 17.1 78 2.4 SSE 13 20 7 11 1017.0 1014.8 0.0
03/07:00am 20.0 22.5 18.1 89 1.2 E 2 7 1 4 1016.7 1014.5 0.0
03/06:30am 18.7 20.5 17.4 92 0.8 ENE 4 7 2 4 1016.5 1014.3 0.0
03/06:00am 17.5 19.4 16.7 95 0.5 ENE 2 7 1 4 1016.3 1014.1 0.0
03/05:30am 17.3 19.5 16.5 95 0.5 CALM 0 0 0 0 1016.0 1013.8 0.0
03/05:00am 16.8 17.7 16.1 96 0.4 NE 6 9 3 5 1015.7 1013.5 0.0
03/04:30am 17.7 18.6 16.7 94 0.6 ESE 7 11 4 6 1015.5 1013.3 0.0
03/04:00am 18.1 19.2 17.0 93 0.7 SE 7 11 4 6 1015.6 1013.4 0.0
03/03:30am 18.4 19.1 17.1 92 0.8 SSE 9 13 5 7 1015.7 1013.5 0.0
03/03:00am 18.6 19.8 17.3 92 0.8 SE 7 11 4 6 1015.6 1013.4 0.0
03/02:30am 18.9 19.8 17.5 92 0.9 SSE 9 17 5 9 1015.8 1013.6 0.0
03/02:00am 19.0 19.9 17.6 92 0.9 SSE 9 13 5 7 1015.9 1013.7 0.0
03/01:30am 19.0 19.8 17.4 90 1.0 SE 9 17 5 9 1016.2 1014.0 0.0
03/01:00am 19.1 19.1 17.3 89 1.1 SE 13 20 7 11 1016.3 1014.1 0.0
03/12:30am 19.4 19.2 17.5 89 1.2 SE 15 22 8 12 1016.7 1014.5 0.0
03/12:00am 19.6 20.0 17.3 86 1.4 SE 11 17 6 9 1017.1 1015.0 0.0
 
Date/Time
EST
Tmp

°C
App
Tmp
°C
Dew
Point
°C
Rel
Hum
%
Delta-T

°C
Wind Press
QNH
hPa
Press
MSL
hPa
Rain
since
9 am
mm
Dir
 
Spd
km/h
Gust
km/h
Spd
kts
Gust
kts
02/11:30pm 19.6 20.0 17.3 86 1.4 SE 11 19 6 10 1017.1 1015.0 0.0
02/11:00pm 19.8 20.3 17.4 86 1.5 SE 11 19 6 10 1017.3 1015.1 0.0
02/10:30pm 20.1 20.6 17.4 84 1.7 SE 11 19 6 10 1017.1 1015.0 0.0
02/10:00pm 20.4 20.5 17.5 83 1.8 SE 13 22 7 12 1017.1 1015.0 0.0
02/09:30pm 20.2 20.8 17.6 85 1.6 SE 11 20 6 11 1017.1 1015.0 0.0
02/09:00pm 20.8 21.4 17.8 83 1.9 SE 11 19 6 10 1017.3 1015.1 0.0
02/08:30pm 21.4 21.5 17.4 78 2.5 SE 13 24 7 13 1017.0 1014.8 0.0
02/08:00pm 21.1 20.6 17.8 81 2.1 SE 17 26 9 14 1016.6 1014.4 0.0
02/07:30pm 21.1 21.2 18.3 84 1.8 SE 15 22 8 12 1016.0 1013.8 0.0
02/07:00pm 21.8 21.5 18.2 80 2.3 SE 17 28 9 15 1015.7 1013.5 0.0
02/06:30pm 22.6 23.4 18.2 76 2.8 SE 11 19 6 10 1015.2 1012.9 0.0
02/06:00pm 23.6 23.4 18.5 73 3.3 SE 17 30 9 16 1014.5 1012.3 0.0
02/05:30pm 24.1 25.0 19.2 74 3.2 ESE 13 28 7 15 1014.3 1012.1 0.0
02/05:00pm 24.2 22.4 18.8 72 3.5 SE 26 41 14 22 1014.2 1012.0 0.0
02/04:46pm 24.3 22.1 18.6 70 3.7 SSE 28 48 15 26 1013.8 1011.6 0.0
02/04:30pm 27.9 27.7 17.6 53 6.6 SSE 15 24 8 13 1013.5 1011.3 0.0
02/04:00pm 27.7 27.5 17.6 54 6.5 SE 15 24 8 13 1013.4 1011.1 0.0
02/03:30pm 27.7 27.7 18.1 56 6.2 SE 15 28 8 15 1013.5 1011.3 0.0
02/03:00pm 27.8 27.6 18.4 56 6.1 SE 17 28 9 15 1013.4 1011.1 0.0
02/02:30pm 27.8 27.0 18.1 55 6.3 SE 19 30 10 16 1013.5 1011.3 0.0
02/02:00pm 27.9 27.3 18.4 56 6.2 SE 19 30 10 16 1013.7 1011.5 0.0
02/01:30pm 27.8 26.5 18.1 55 6.3 SSE 22 37 12 20 1014.1 1011.9 0.0
02/01:00pm 27.1 26.2 18.3 58 5.7 SSE 20 32 11 17 1014.3 1012.1 0.0
02/12:30pm 27.1 26.7 18.1 58 5.8 SE 17 26 9 14 1014.7 1012.5 0.0
02/12:00pm 26.4 25.8 18.4 61 5.2 SE 19 32 10 17 1014.9 1012.7 0.0
02/11:30am 26.3 25.5 18.4 61 5.1 SSE 20 32 11 17 1015.4 1013.2 0.0
02/11:00am 25.6 25.0 18.5 65 4.6 SE 19 32 10 17 1015.6 1013.4 0.0
02/10:30am 24.2 23.4 18.1 68 3.9 SE 19 30 10 16 1015.9 1013.7 0.0
02/10:00am 24.0 23.1 18.1 69 3.8 SE 20 32 11 17 1016.1 1013.9 0.0
02/09:30am 23.4 22.5 17.7 70 3.6 SSE 19 28 10 15 1016.1 1013.9 0.0
02/09:00am 23.7 23.2 17.9 70 3.7 SE 17 28 9 15 1015.7 1013.5 0.0
02/08:30am 22.4 22.1 18.3 77 2.6 SSE 17 28 9 15 1015.5 1013.3 0.0
02/08:00am 22.5 22.3 18.6 78 2.5 SSE 17 28 9 15 1015.2 1012.9 0.0
02/07:30am 22.1 22.0 18.8 81 2.1 SE 17 30 9 16 1014.9 1012.7 0.0
02/07:00am 21.5 22.1 18.7 84 1.8 SSE 13 24 7 13 1014.7 1012.5 0.0
02/06:30am 20.6 21.4 18.2 86 1.5 SSE 11 20 6 11 1014.5 1012.3 0.0
02/06:00am 20.1 20.8 18.0 88 1.3 SSE 11 19 6 10 1014.2 1012.0 0.0
02/05:30am 20.2 21.3 18.1 88 1.3 SSE 9 17 5 9 1013.7 1011.5 0.0
02/05:00am 20.2 21.1 18.3 89 1.2 SSE 11 19 6 10 1013.4 1011.1 0.0
02/04:30am 20.4 21.6 19.0 92 0.9 SSE 11 17 6 9 1013.0 1010.7 0.0
02/04:00am 20.8 22.6 19.6 93 0.8 SE 9 19 5 10 1012.5 1010.3 0.0
02/03:30am 19.6 22.5 19.0 96 0.4 S 2 9 1 5 1012.3 1010.1 0.0
02/03:00am 20.1 23.5 19.3 95 0.5 CALM 0 0 0 0 1011.7 1009.5 0.0
02/02:30am 19.8 22.8 19.2 96 0.4 SSE 2 6 1 3 1011.8 1009.6 0.0
02/02:00am 20.0 22.3 19.4 96 0.4 SE 6 9 3 5 1011.9 1009.7 0.0
02/01:30am 20.4 23.9 19.6 95 0.5 CALM 0 0 0 0 1011.9 1009.7 0.0
02/01:00am 20.8 24.5 19.9 95 0.6 CALM 0 0 0 0 1011.9 1009.7 0.0
02/12:30am 20.9 23.2 19.5 92 0.9 NNE 6 7 3 4 1012.1 1009.9 0.0
02/12:00am 20.8 22.8 19.2 90 1.0 NE 7 11 4 6 1012.0 1009.8 0.0
 
Date/Time
EST
Tmp

°C
App
Tmp
°C
Dew
Point
°C
Rel
Hum
%
Delta-T

°C
Wind Press
QNH
hPa
Press
MSL
hPa
Rain
since
9 am
mm
Dir
 
Spd
km/h
Gust
km/h
Spd
kts
Gust
kts
01/11:30pm 21.3 24.6 19.9 92 0.9 NW 2 7 1 4 1012.1 1009.9 0.0
01/11:00pm 21.9 25.6 19.9 88 1.3 CALM 0 0 0 0 1012.1 1009.9 0.0
01/10:30pm 21.7 24.8 19.4 87 1.5 ENE 2 9 1 5 1011.9 1009.7 0.0
01/10:00pm 21.9 25.3 19.4 86 1.6 CALM 0 0 0 0 1012.0 1009.8 0.0
01/09:30pm 22.0 25.7 19.9 88 1.4 CALM 0 0 0 0 1011.6 1009.4 0.0
01/09:00pm 23.8 26.1 19.4 76 2.9 NE 6 7 3 4 1011.6 1009.4 0.0
01/08:30pm 23.5 25.3 18.7 74 3.1 NNE 7 9 4 5 1011.3 1009.0 0.0
01/08:00pm 23.9 26.2 19.8 78 2.7 ENE 7 9 4 5 1010.4 1008.2 0.0
01/07:30pm 24.9 26.8 18.9 69 3.9 NE 7 9 4 5 1010.0 1007.8 0.0
01/07:00pm 24.9 26.6 18.4 67 4.2 N 7 7 4 4 1009.5 1007.2 0.0
01/06:30pm 25.9 29.2 19.2 66 4.4 CALM 0 0 0 0 1009.3 1007.0 0.0
01/06:00pm 28.2 31.5 19.1 57 6.0 CALM 0 0 0 0 1009.3 1007.0 0.0
01/05:30pm 27.8 31.1 19.0 58 5.8 CALM 0 0 0 0 1009.0 1006.7 0.0
01/05:00pm 27.8 30.3 19.0 58 5.8 WNW 4 7 2 4 1009.0 1006.7 0.0
01/04:30pm 28.1 29.7 17.9 54 6.6 WNW 6 11 3 6 1008.7 1006.4 0.0
01/04:00pm 28.4 30.1 18.6 55 6.4 W 7 15 4 8 1008.8 1006.5 0.0
01/03:30pm 28.4 29.2 18.1 53 6.7 WNW 11 17 6 9 1009.0 1006.7 0.0
01/03:00pm 28.9 29.8 18.5 53 6.8 W 11 17 6 9 1009.4 1007.1 0.0
01/02:30pm 29.6 29.8 17.7 48 7.7 W 13 20 7 11 1009.7 1007.5 0.0
01/02:00pm 30.1 30.8 18.9 51 7.4 NW 13 20 7 11 1009.9 1007.7 0.0
01/01:30pm 29.4 30.4 18.6 52 7.1 W 11 20 6 11 1010.3 1008.1 0.0
01/01:00pm 28.5 29.6 18.0 53 6.8 NW 9 17 5 9 1010.7 1008.4 0.0
01/12:30pm 28.1 29.3 18.3 55 6.4 WNW 9 15 5 8 1011.1 1008.8 0.0
01/12:00pm 28.0 28.3 18.0 54 6.5 WNW 13 19 7 10 1011.3 1009.0 0.0
01/11:30am 28.0 30.2 19.2 58 5.8 NNE 6 15 3 8 1011.7 1009.5 0.0
01/11:00am 27.0 27.8 18.2 58 5.7 W 11 17 6 9 1012.1 1009.9 0.0
01/10:30am 26.4 27.4 17.7 58 5.6 NW 9 15 5 8 1012.4 1010.2 0.0
01/10:00am 26.0 27.0 17.7 60 5.3 N 9 13 5 7 1012.6 1010.4 0.0
01/09:30am 24.7 27.0 18.5 68 4.0 WSW 4 9 2 5 1012.9 1010.2 0.0
01/09:00am 23.7 25.6 18.6 73 3.3 W 6 13 3 7 1012.9 1010.2 0.2

Latest Capital City Observations: Canberra | Sydney | Melbourne | Brisbane | Adelaide | Perth | Hobart | Darwin

Other Formats:

Comma delimited format used in spreadsheet applications
http://www.bom.gov.au/fwo/IDQ60901/IDQ60901.94555.axf

JavaScript Object Notation format (JSON) in row-major order
http://www.bom.gov.au/fwo/IDQ60901/IDQ60901.94555.json